createdAt,value
2023-04-16T00:00:56.418Z,31.07
2023-04-16T00:03:59.678Z,30.30
2023-04-16T00:07:03.343Z,26.80
2023-04-16T00:10:09.243Z,29.27
2023-04-16T00:13:12.535Z,27.80
2023-04-16T00:16:17.326Z,30.20
2023-04-16T00:19:20.739Z,36.20
2023-04-16T00:22:23.959Z,32.37
2023-04-16T00:25:27.138Z,33.80
2023-04-16T00:28:30.272Z,33.67
2023-04-16T00:31:43.369Z,35.87
2023-04-16T00:34:46.489Z,31.40
2023-04-16T00:37:49.784Z,31.00
2023-04-16T00:40:52.923Z,34.23
2023-04-16T00:43:55.957Z,31.07
2023-04-16T00:47:01.359Z,30.77
2023-04-16T00:50:05.685Z,34.97
2023-04-16T00:53:09.072Z,30.83
2023-04-16T00:56:13.608Z,32.87
2023-04-16T00:59:17.430Z,34.43
2023-04-16T01:02:22.421Z,31.67
2023-04-16T01:05:26.996Z,35.03
2023-04-16T01:08:30.355Z,35.40
2023-04-16T01:11:34.076Z,34.60
2023-04-16T01:14:37.365Z,33.83
2023-04-16T01:17:41.869Z,33.30
2023-04-16T01:20:46.805Z,31.73
2023-04-16T01:23:50.129Z,35.00
2023-04-16T01:26:53.250Z,34.30
2023-04-16T01:29:58.733Z,35.70
2023-04-16T01:33:15.602Z,36.47
2023-04-16T01:36:20.467Z,34.53
2023-04-16T01:39:23.817Z,37.73
2023-04-16T01:42:30.097Z,36.63
2023-04-16T01:45:34.595Z,41.40
2023-04-16T01:48:37.661Z,40.43
2023-04-16T01:51:42.666Z,37.90
2023-04-16T01:54:46.761Z,38.40
2023-04-16T01:57:50.042Z,38.53
2023-04-16T02:00:55.361Z,38.13
2023-04-16T02:04:02.308Z,41.93
2023-04-16T02:07:08.648Z,37.13
2023-04-16T02:10:12.178Z,40.03
2023-04-16T02:13:25.930Z,36.97
2023-04-16T02:16:30.246Z,38.73
2023-04-16T02:19:40.833Z,38.87
2023-04-16T02:22:47.125Z,36.97
2023-04-16T02:25:53.740Z,37.20
2023-04-16T02:28:57.506Z,35.20
2023-04-16T02:32:11.482Z,42.67
2023-04-16T02:35:16.983Z,38.93
2023-04-16T02:38:23.115Z,42.20
2023-04-16T02:41:26.569Z,36.50
2023-04-16T02:44:29.766Z,38.90
2023-04-16T02:47:33.049Z,37.17
2023-04-16T02:50:40.512Z,39.63
2023-04-16T02:53:48.090Z,40.00
2023-04-16T02:56:59.225Z,34.77
2023-04-16T03:00:04.877Z,38.37
2023-04-16T03:03:09.912Z,39.47
2023-04-16T03:06:13.689Z,41.70
2023-04-16T03:09:19.388Z,44.63
2023-04-16T03:12:23.438Z,45.43
2023-04-16T03:15:27.409Z,48.10
2023-04-16T03:18:30.859Z,50.60
2023-04-16T03:21:34.524Z,53.50
2023-04-16T03:24:40.274Z,56.07
2023-04-16T03:27:44.060Z,57.17
2023-04-16T03:30:53.519Z,53.87
2023-04-16T03:33:59.581Z,56.30
2023-04-16T03:37:03.188Z,60.90
2023-04-16T03:40:11.216Z,53.60
2023-04-16T03:43:14.883Z,54.57
2023-04-16T03:46:19.830Z,54.03
2023-04-16T03:49:25.938Z,56.53
2023-04-16T03:52:29.343Z,62.87
2023-04-16T03:55:34.909Z,57.33
2023-04-16T03:58:41.413Z,64.77
2023-04-16T04:01:45.153Z,61.57
2023-04-16T04:04:48.890Z,60.57
2023-04-16T04:07:52.151Z,56.77
2023-04-16T04:10:57.870Z,56.50
2023-04-16T04:14:02.935Z,53.73
2023-04-16T04:17:10.564Z,58.73
2023-04-16T04:20:14.078Z,52.13
2023-04-16T04:23:20.834Z,53.63
2023-04-16T04:26:26.221Z,61.37
2023-04-16T04:29:29.502Z,58.67
2023-04-16T04:32:33.352Z,57.40
2023-04-16T04:35:37.691Z,58.53
2023-04-16T04:38:41.444Z,54.83
2023-04-16T04:41:49.760Z,57.67
2023-04-16T04:44:55.355Z,54.27
2023-04-16T04:48:54.992Z,49.17
2023-04-16T04:53:04.326Z,51.27
2023-04-16T04:56:12.316Z,54.90
2023-04-16T04:59:17.442Z,52.77
2023-04-16T05:02:20.979Z,55.87
2023-04-16T05:05:24.538Z,56.53
2023-04-16T05:08:27.620Z,58.63
2023-04-16T05:11:31.022Z,59.93
2023-04-16T05:14:38.182Z,59.83
2023-04-16T05:17:41.230Z,60.33
2023-04-16T05:20:44.193Z,55.80
2023-04-16T05:23:50.136Z,67.70
2023-04-16T05:26:53.516Z,56.70
2023-04-16T05:29:57.823Z,61.00
2023-04-16T05:33:01.188Z,61.20
2023-04-16T05:36:05.070Z,64.47
2023-04-16T05:39:08.886Z,68.40
2023-04-16T05:42:12.335Z,60.57
2023-04-16T05:45:16.621Z,58.80
2023-04-16T05:48:20.207Z,55.00
2023-04-16T05:51:25.463Z,59.67
2023-04-16T05:54:28.442Z,67.10
2023-04-16T05:57:31.407Z,61.50
2023-04-16T06:00:36.350Z,59.10
2023-04-16T06:03:45.224Z,61.97
2023-04-16T06:06:48.302Z,56.40
2023-04-16T06:09:51.254Z,60.00
2023-04-16T06:12:54.572Z,54.27
2023-04-16T06:15:59.302Z,60.97
2023-04-16T06:19:02.406Z,53.37
2023-04-16T06:22:06.513Z,53.40
2023-04-16T06:25:10.909Z,58.27
2023-04-16T06:28:13.886Z,51.83
2023-04-16T06:31:18.170Z,54.97
2023-04-16T06:34:21.287Z,59.53
2023-04-16T06:37:24.443Z,53.73
2023-04-16T06:40:27.822Z,56.63
2023-04-16T06:43:32.913Z,55.00
2023-04-16T06:46:37.387Z,55.77
2023-04-16T06:49:42.622Z,56.70
2023-04-16T06:52:45.831Z,51.80
2023-04-16T06:55:51.553Z,49.60
2023-04-16T06:58:57.126Z,51.50
2023-04-16T07:02:01.981Z,54.33
2023-04-16T07:05:06.668Z,49.80
2023-04-16T07:08:12.820Z,50.73
2023-04-16T07:11:16.335Z,48.80
2023-04-16T07:14:19.371Z,50.90
2023-04-16T07:17:23.644Z,47.87
2023-04-16T07:20:27.090Z,54.57
2023-04-16T07:23:32.847Z,48.87
2023-04-16T07:26:35.812Z,44.07
2023-04-16T07:29:41.008Z,47.20
2023-04-16T07:32:45.732Z,47.57
